sensor_id;sensor_type;location;lat;lon;timestamp;P1;durP1;ratioP1;P2;durP2;ratioP2
75025;SDS011;63591;50.080;8.286;2022-11-06T00:01:54;10.10;;;5.70;;
75025;SDS011;63591;50.080;8.286;2022-11-06T00:04:20;9.93;;;5.60;;
75025;SDS011;63591;50.080;8.286;2022-11-06T00:06:45;9.23;;;5.60;;
75025;SDS011;63591;50.080;8.286;2022-11-06T00:09:14;9.70;;;6.28;;
75025;SDS011;63591;50.080;8.286;2022-11-06T00:11:42;11.05;;;5.97;;
75025;SDS011;63591;50.080;8.286;2022-11-06T00:14:08;10.50;;;6.07;;
75025;SDS011;63591;50.080;8.286;2022-11-06T00:16:35;8.68;;;5.63;;
75025;SDS011;63591;50.080;8.286;2022-11-06T00:19:01;11.80;;;5.63;;
75025;SDS011;63591;50.080;8.286;2022-11-06T00:21:28;10.48;;;6.22;;
75025;SDS011;63591;50.080;8.286;2022-11-06T00:23:55;10.90;;;6.20;;
75025;SDS011;63591;50.080;8.286;2022-11-06T00:26:23;11.45;;;6.15;;
75025;SDS011;63591;50.080;8.286;2022-11-06T00:28:50;9.53;;;5.87;;
75025;SDS011;63591;50.080;8.286;2022-11-06T00:31:17;11.02;;;5.70;;
75025;SDS011;63591;50.080;8.286;2022-11-06T00:33:44;10.35;;;5.78;;
75025;SDS011;63591;50.080;8.286;2022-11-06T00:36:14;9.93;;;6.23;;
75025;SDS011;63591;50.080;8.286;2022-11-06T00:38:41;10.82;;;6.28;;
75025;SDS011;63591;50.080;8.286;2022-11-06T00:41:07;10.40;;;6.03;;
75025;SDS011;63591;50.080;8.286;2022-11-06T00:43:34;9.43;;;5.77;;
75025;SDS011;63591;50.080;8.286;2022-11-06T00:46:08;8.75;;;5.57;;
75025;SDS011;63591;50.080;8.286;2022-11-06T00:48:35;9.68;;;5.70;;
75025;SDS011;63591;50.080;8.286;2022-11-06T00:51:03;9.52;;;5.70;;
75025;SDS011;63591;50.080;8.286;2022-11-06T00:53:29;10.63;;;5.90;;
75025;SDS011;63591;50.080;8.286;2022-11-06T00:55:54;9.40;;;5.70;;
75025;SDS011;63591;50.080;8.286;2022-11-06T00:58:19;8.63;;;5.73;;
75025;SDS011;63591;50.080;8.286;2022-11-06T01:00:45;8.67;;;5.53;;
75025;SDS011;63591;50.080;8.286;2022-11-06T01:03:10;9.60;;;5.80;;
75025;SDS011;63591;50.080;8.286;2022-11-06T01:05:35;10.13;;;6.20;;
75025;SDS011;63591;50.080;8.286;2022-11-06T01:08:01;10.50;;;5.90;;
75025;SDS011;63591;50.080;8.286;2022-11-06T01:10:26;10.90;;;5.63;;
75025;SDS011;63591;50.080;8.286;2022-11-06T01:12:51;9.17;;;5.97;;
75025;SDS011;63591;50.080;8.286;2022-11-06T01:15:16;9.80;;;6.00;;
75025;SDS011;63591;50.080;8.286;2022-11-06T01:17:42;11.90;;;5.80;;
75025;SDS011;63591;50.080;8.286;2022-11-06T01:20:07;10.43;;;6.10;;
75025;SDS011;63591;50.080;8.286;2022-11-06T01:22:33;9.85;;;5.60;;
75025;SDS011;63591;50.080;8.286;2022-11-06T01:24:59;8.90;;;5.87;;
75025;SDS011;63591;50.080;8.286;2022-11-06T01:27:24;10.60;;;6.10;;
75025;SDS011;63591;50.080;8.286;2022-11-06T01:29:49;9.97;;;5.90;;
75025;SDS011;63591;50.080;8.286;2022-11-06T01:32:14;11.47;;;6.00;;
75025;SDS011;63591;50.080;8.286;2022-11-06T01:34:40;9.90;;;6.10;;
75025;SDS011;63591;50.080;8.286;2022-11-06T01:37:05;9.60;;;6.20;;
75025;SDS011;63591;50.080;8.286;2022-11-06T01:39:31;8.67;;;5.73;;
75025;SDS011;63591;50.080;8.286;2022-11-06T01:41:57;8.77;;;5.70;;
75025;SDS011;63591;50.080;8.286;2022-11-06T01:47:00;10.00;;;5.90;;
75025;SDS011;63591;50.080;8.286;2022-11-06T01:49:28;11.17;;;5.50;;
75025;SDS011;63591;50.080;8.286;2022-11-06T01:51:58;8.82;;;5.55;;
75025;SDS011;63591;50.080;8.286;2022-11-06T01:54:27;9.20;;;5.55;;
75025;SDS011;63591;50.080;8.286;2022-11-06T01:56:55;8.75;;;5.55;;
75025;SDS011;63591;50.080;8.286;2022-11-06T01:59:27;11.43;;;5.68;;
75025;SDS011;63591;50.080;8.286;2022-11-06T02:01:56;8.67;;;5.43;;
75025;SDS011;63591;50.080;8.286;2022-11-06T02:04:22;9.35;;;5.53;;
75025;SDS011;63591;50.080;8.286;2022-11-06T02:06:49;9.73;;;5.70;;
75025;SDS011;63591;50.080;8.286;2022-11-06T02:09:16;8.95;;;5.43;;
75025;SDS011;63591;50.080;8.286;2022-11-06T02:11:44;9.82;;;5.65;;
75025;SDS011;63591;50.080;8.286;2022-11-06T02:16:53;8.40;;;5.28;;
75025;SDS011;63591;50.080;8.286;2022-11-06T02:25:21;8.55;;;4.93;;
75025;SDS011;63591;50.080;8.286;2022-11-06T02:28:05;8.27;;;5.00;;
75025;SDS011;63591;50.080;8.286;2022-11-06T02:30:40;10.60;;;5.40;;
75025;SDS011;63591;50.080;8.286;2022-11-06T02:33:14;9.80;;;4.97;;
75025;SDS011;63591;50.080;8.286;2022-11-06T02:35:55;9.18;;;5.10;;
75025;SDS011;63591;50.080;8.286;2022-11-06T02:38:27;8.23;;;5.40;;
75025;SDS011;63591;50.080;8.286;2022-11-06T02:41:01;9.77;;;5.45;;
75025;SDS011;63591;50.080;8.286;2022-11-06T02:43:38;9.85;;;5.00;;
75025;SDS011;63591;50.080;8.286;2022-11-06T02:46:11;8.30;;;5.05;;
75025;SDS011;63591;50.080;8.286;2022-11-06T02:48:41;8.15;;;4.53;;
75025;SDS011;63591;50.080;8.286;2022-11-06T02:51:10;7.88;;;4.78;;
75025;SDS011;63591;50.080;8.286;2022-11-06T02:53:39;9.40;;;5.15;;
75025;SDS011;63591;50.080;8.286;2022-11-06T02:56:13;8.70;;;5.05;;
75025;SDS011;63591;50.080;8.286;2022-11-06T02:59:24;9.45;;;5.13;;
75025;SDS011;63591;50.080;8.286;2022-11-06T03:01:34;8.35;;;5.20;;
75025;SDS011;63591;50.080;8.286;2022-11-06T03:04:08;8.40;;;4.95;;
75025;SDS011;63591;50.080;8.286;2022-11-06T03:07:00;7.60;;;4.97;;
75025;SDS011;63591;50.080;8.286;2022-11-06T03:09:30;8.98;;;5.63;;
75025;SDS011;63591;50.080;8.286;2022-11-06T03:11:58;8.35;;;4.60;;
75025;SDS011;63591;50.080;8.286;2022-11-06T03:14:31;7.68;;;4.63;;
75025;SDS011;63591;50.080;8.286;2022-11-06T03:17:06;8.80;;;4.82;;
75025;SDS011;63591;50.080;8.286;2022-11-06T03:19:44;7.45;;;4.47;;
75025;SDS011;63591;50.080;8.286;2022-11-06T03:22:12;10.60;;;4.65;;
75025;SDS011;63591;50.080;8.286;2022-11-06T03:24:45;10.32;;;5.03;;
75025;SDS011;63591;50.080;8.286;2022-11-06T03:27:22;8.57;;;5.05;;
75025;SDS011;63591;50.080;8.286;2022-11-06T03:29:59;8.93;;;4.85;;
75025;SDS011;63591;50.080;8.286;2022-11-06T03:32:39;8.45;;;4.72;;
75025;SDS011;63591;50.080;8.286;2022-11-06T03:37:54;9.40;;;4.70;;
75025;SDS011;63591;50.080;8.286;2022-11-06T03:40:20;9.43;;;4.68;;
75025;SDS011;63591;50.080;8.286;2022-11-06T03:42:50;8.70;;;4.55;;
75025;SDS011;63591;50.080;8.286;2022-11-06T03:45:20;10.48;;;4.47;;
75025;SDS011;63591;50.080;8.286;2022-11-06T03:47:50;9.70;;;4.35;;
75025;SDS011;63591;50.080;8.286;2022-11-06T03:50:27;10.10;;;4.45;;
75025;SDS011;63591;50.080;8.286;2022-11-06T03:52:59;8.07;;;4.25;;
75025;SDS011;63591;50.080;8.286;2022-11-06T03:55:33;10.20;;;4.45;;
75025;SDS011;63591;50.080;8.286;2022-11-06T03:58:06;7.65;;;4.30;;
75025;SDS011;63591;50.080;8.286;2022-11-06T04:00:37;8.82;;;4.22;;
75025;SDS011;63591;50.080;8.286;2022-11-06T04:03:06;7.85;;;3.92;;
75025;SDS011;63591;50.080;8.286;2022-11-06T04:05:52;7.25;;;4.22;;
75025;SDS011;63591;50.080;8.286;2022-11-06T04:08:22;8.35;;;4.10;;
75025;SDS011;63591;50.080;8.286;2022-11-06T04:11:09;9.27;;;4.28;;
75025;SDS011;63591;50.080;8.286;2022-11-06T04:13:58;9.10;;;4.65;;
75025;SDS011;63591;50.080;8.286;2022-11-06T04:16:36;8.02;;;4.50;;
75025;SDS011;63591;50.080;8.286;2022-11-06T04:19:20;8.27;;;4.15;;
75025;SDS011;63591;50.080;8.286;2022-11-06T04:21:50;6.60;;;4.28;;
75025;SDS011;63591;50.080;8.286;2022-11-06T04:24:41;6.53;;;3.90;;
75025;SDS011;63591;50.080;8.286;2022-11-06T04:30:08;8.02;;;4.40;;
75025;SDS011;63591;50.080;8.286;2022-11-06T04:35:23;7.68;;;4.50;;
75025;SDS011;63591;50.080;8.286;2022-11-06T04:37:53;7.60;;;4.13;;
75025;SDS011;63591;50.080;8.286;2022-11-06T04:46:13;7.72;;;4.13;;
75025;SDS011;63591;50.080;8.286;2022-11-06T04:48:45;9.82;;;4.28;;
75025;SDS011;63591;50.080;8.286;2022-11-06T04:51:11;8.40;;;4.68;;
75025;SDS011;63591;50.080;8.286;2022-11-06T04:53:38;7.32;;;4.35;;
75025;SDS011;63591;50.080;8.286;2022-11-06T04:56:06;8.50;;;4.38;;
75025;SDS011;63591;50.080;8.286;2022-11-06T04:58:35;7.53;;;4.35;;
75025;SDS011;63591;50.080;8.286;2022-11-06T05:01:02;8.45;;;4.40;;
75025;SDS011;63591;50.080;8.286;2022-11-06T05:03:28;7.55;;;4.32;;
75025;SDS011;63591;50.080;8.286;2022-11-06T05:05:53;8.47;;;4.30;;
75025;SDS011;63591;50.080;8.286;2022-11-06T05:08:19;7.90;;;4.43;;
75025;SDS011;63591;50.080;8.286;2022-11-06T05:10:45;8.07;;;4.40;;
75025;SDS011;63591;50.080;8.286;2022-11-06T05:13:11;8.40;;;4.50;;
75025;SDS011;63591;50.080;8.286;2022-11-06T05:15:37;8.05;;;4.57;;
75025;SDS011;63591;50.080;8.286;2022-11-06T05:18:03;7.77;;;4.20;;
75025;SDS011;63591;50.080;8.286;2022-11-06T05:20:29;8.30;;;4.30;;
75025;SDS011;63591;50.080;8.286;2022-11-06T05:22:55;8.30;;;4.40;;
75025;SDS011;63591;50.080;8.286;2022-11-06T05:25:24;7.80;;;4.33;;
75025;SDS011;63591;50.080;8.286;2022-11-06T05:27:55;7.43;;;4.05;;
75025;SDS011;63591;50.080;8.286;2022-11-06T05:30:20;7.55;;;4.10;;
75025;SDS011;63591;50.080;8.286;2022-11-06T05:32:46;7.93;;;4.20;;
75025;SDS011;63591;50.080;8.286;2022-11-06T05:35:13;7.88;;;4.13;;
75025;SDS011;63591;50.080;8.286;2022-11-06T05:37:38;6.97;;;4.03;;
75025;SDS011;63591;50.080;8.286;2022-11-06T05:40:04;7.60;;;4.60;;
75025;SDS011;63591;50.080;8.286;2022-11-06T05:42:30;8.73;;;4.43;;
75025;SDS011;63591;50.080;8.286;2022-11-06T05:44:55;8.00;;;4.33;;
75025;SDS011;63591;50.080;8.286;2022-11-06T05:47:20;8.60;;;4.53;;
75025;SDS011;63591;50.080;8.286;2022-11-06T05:49:46;9.33;;;5.10;;
75025;SDS011;63591;50.080;8.286;2022-11-06T05:52:11;6.53;;;4.20;;
75025;SDS011;63591;50.080;8.286;2022-11-06T05:54:36;9.13;;;4.73;;
75025;SDS011;63591;50.080;8.286;2022-11-06T05:57:02;10.43;;;4.67;;
75025;SDS011;63591;50.080;8.286;2022-11-06T05:59:27;8.07;;;4.72;;
75025;SDS011;63591;50.080;8.286;2022-11-06T06:01:53;8.77;;;4.80;;
75025;SDS011;63591;50.080;8.286;2022-11-06T06:04:18;8.87;;;4.40;;
75025;SDS011;63591;50.080;8.286;2022-11-06T06:06:44;7.63;;;4.53;;
75025;SDS011;63591;50.080;8.286;2022-11-06T06:09:09;7.68;;;4.57;;
75025;SDS011;63591;50.080;8.286;2022-11-06T06:11:34;8.15;;;4.60;;
75025;SDS011;63591;50.080;8.286;2022-11-06T06:14:00;8.87;;;4.63;;
75025;SDS011;63591;50.080;8.286;2022-11-06T06:16:25;8.33;;;5.00;;
75025;SDS011;63591;50.080;8.286;2022-11-06T06:18:51;9.00;;;4.90;;
75025;SDS011;63591;50.080;8.286;2022-11-06T06:21:16;8.57;;;5.00;;
75025;SDS011;63591;50.080;8.286;2022-11-06T06:23:41;9.50;;;4.90;;
75025;SDS011;63591;50.080;8.286;2022-11-06T06:26:07;8.60;;;4.73;;
75025;SDS011;63591;50.080;8.286;2022-11-06T06:28:33;8.45;;;5.00;;
75025;SDS011;63591;50.080;8.286;2022-11-06T06:31:02;7.90;;;4.53;;
75025;SDS011;63591;50.080;8.286;2022-11-06T06:33:28;8.25;;;4.80;;
75025;SDS011;63591;50.080;8.286;2022-11-06T06:35:53;7.87;;;4.80;;
75025;SDS011;63591;50.080;8.286;2022-11-06T06:38:18;9.47;;;5.47;;
75025;SDS011;63591;50.080;8.286;2022-11-06T06:40:44;9.63;;;5.37;;
75025;SDS011;63591;50.080;8.286;2022-11-06T06:43:09;8.55;;;5.40;;
75025;SDS011;63591;50.080;8.286;2022-11-06T06:45:34;9.18;;;5.38;;
75025;SDS011;63591;50.080;8.286;2022-11-06T06:48:03;10.00;;;5.47;;
75025;SDS011;63591;50.080;8.286;2022-11-06T06:50:29;8.23;;;4.97;;
75025;SDS011;63591;50.080;8.286;2022-11-06T06:52:55;10.52;;;5.75;;
75025;SDS011;63591;50.080;8.286;2022-11-06T06:55:24;9.82;;;5.60;;
75025;SDS011;63591;50.080;8.286;2022-11-06T06:57:56;8.03;;;5.03;;
75025;SDS011;63591;50.080;8.286;2022-11-06T07:00:25;9.35;;;5.20;;
75025;SDS011;63591;50.080;8.286;2022-11-06T07:02:51;8.85;;;5.10;;
75025;SDS011;63591;50.080;8.286;2022-11-06T07:05:16;9.60;;;5.60;;
75025;SDS011;63591;50.080;8.286;2022-11-06T07:07:42;7.83;;;4.80;;
75025;SDS011;63591;50.080;8.286;2022-11-06T07:10:07;9.13;;;5.13;;
75025;SDS011;63591;50.080;8.286;2022-11-06T07:12:33;7.73;;;4.83;;
75025;SDS011;63591;50.080;8.286;2022-11-06T07:14:58;9.93;;;5.20;;
75025;SDS011;63591;50.080;8.286;2022-11-06T07:17:23;8.93;;;5.45;;
75025;SDS011;63591;50.080;8.286;2022-11-06T07:19:49;9.17;;;5.93;;
75025;SDS011;63591;50.080;8.286;2022-11-06T07:22:14;8.83;;;5.40;;
75025;SDS011;63591;50.080;8.286;2022-11-06T07:24:39;10.00;;;5.60;;
75025;SDS011;63591;50.080;8.286;2022-11-06T07:27:04;8.23;;;5.10;;
75025;SDS011;63591;50.080;8.286;2022-11-06T07:29:30;9.00;;;5.50;;
75025;SDS011;63591;50.080;8.286;2022-11-06T07:31:55;9.20;;;5.60;;
75025;SDS011;63591;50.080;8.286;2022-11-06T07:34:20;7.80;;;4.82;;
75025;SDS011;63591;50.080;8.286;2022-11-06T07:36:46;7.83;;;5.00;;
75025;SDS011;63591;50.080;8.286;2022-11-06T07:39:11;8.53;;;5.30;;
75025;SDS011;63591;50.080;8.286;2022-11-06T07:41:36;8.83;;;5.33;;
75025;SDS011;63591;50.080;8.286;2022-11-06T07:44:02;10.30;;;5.70;;
75025;SDS011;63591;50.080;8.286;2022-11-06T07:46:27;9.23;;;5.73;;
75025;SDS011;63591;50.080;8.286;2022-11-06T07:48:53;9.98;;;6.30;;
75025;SDS011;63591;50.080;8.286;2022-11-06T07:51:18;10.07;;;6.30;;
75025;SDS011;63591;50.080;8.286;2022-11-06T07:53:44;10.60;;;6.53;;
75025;SDS011;63591;50.080;8.286;2022-11-06T07:56:09;9.50;;;6.33;;
75025;SDS011;63591;50.080;8.286;2022-11-06T07:58:34;10.60;;;6.27;;
75025;SDS011;63591;50.080;8.286;2022-11-06T08:01:00;10.00;;;6.40;;
75025;SDS011;63591;50.080;8.286;2022-11-06T08:03:26;9.50;;;6.38;;
75025;SDS011;63591;50.080;8.286;2022-11-06T08:05:54;10.73;;;6.50;;
75025;SDS011;63591;50.080;8.286;2022-11-06T08:08:19;11.30;;;7.07;;
75025;SDS011;63591;50.080;8.286;2022-11-06T08:10:45;11.25;;;6.75;;
75025;SDS011;63591;50.080;8.286;2022-11-06T08:13:12;10.43;;;6.32;;
75025;SDS011;63591;50.080;8.286;2022-11-06T08:15:40;9.85;;;6.25;;
75025;SDS011;63591;50.080;8.286;2022-11-06T08:18:06;11.43;;;7.13;;
75025;SDS011;63591;50.080;8.286;2022-11-06T08:20:33;10.48;;;6.18;;
75025;SDS011;63591;50.080;8.286;2022-11-06T08:22:59;10.45;;;6.32;;
75025;SDS011;63591;50.080;8.286;2022-11-06T08:25:26;10.88;;;6.70;;
75025;SDS011;63591;50.080;8.286;2022-11-06T08:27:55;11.23;;;7.20;;
75025;SDS011;63591;50.080;8.286;2022-11-06T08:30:21;11.10;;;7.03;;
75025;SDS011;63591;50.080;8.286;2022-11-06T08:32:46;11.03;;;7.00;;
75025;SDS011;63591;50.080;8.286;2022-11-06T08:35:12;12.90;;;7.47;;
75025;SDS011;63591;50.080;8.286;2022-11-06T08:37:37;12.10;;;6.85;;
75025;SDS011;63591;50.080;8.286;2022-11-06T08:40:03;11.68;;;7.13;;
75025;SDS011;63591;50.080;8.286;2022-11-06T08:42:28;12.13;;;6.97;;
75025;SDS011;63591;50.080;8.286;2022-11-06T08:44:54;11.30;;;6.50;;
75025;SDS011;63591;50.080;8.286;2022-11-06T08:47:19;11.40;;;7.20;;
75025;SDS011;63591;50.080;8.286;2022-11-06T08:49:45;12.20;;;7.20;;
75025;SDS011;63591;50.080;8.286;2022-11-06T08:52:10;11.87;;;7.40;;
75025;SDS011;63591;50.080;8.286;2022-11-06T08:54:35;13.00;;;7.40;;
75025;SDS011;63591;50.080;8.286;2022-11-06T08:57:00;12.07;;;7.37;;
75025;SDS011;63591;50.080;8.286;2022-11-06T08:59:26;13.10;;;7.63;;
75025;SDS011;63591;50.080;8.286;2022-11-06T09:01:51;14.40;;;8.10;;
75025;SDS011;63591;50.080;8.286;2022-11-06T09:04:17;13.53;;;8.10;;
75025;SDS011;63591;50.080;8.286;2022-11-06T09:06:42;14.90;;;8.30;;
75025;SDS011;63591;50.080;8.286;2022-11-06T09:09:08;12.88;;;7.32;;
75025;SDS011;63591;50.080;8.286;2022-11-06T09:11:33;12.67;;;7.73;;
75025;SDS011;63591;50.080;8.286;2022-11-06T09:13:59;13.83;;;8.10;;
75025;SDS011;63591;50.080;8.286;2022-11-06T09:16:24;13.77;;;8.10;;
75025;SDS011;63591;50.080;8.286;2022-11-06T09:18:52;14.05;;;8.35;;
75025;SDS011;63591;50.080;8.286;2022-11-06T09:21:18;13.65;;;7.97;;
75025;SDS011;63591;50.080;8.286;2022-11-06T09:23:43;13.33;;;7.80;;
75025;SDS011;63591;50.080;8.286;2022-11-06T09:26:10;13.77;;;8.30;;
75025;SDS011;63591;50.080;8.286;2022-11-06T09:28:35;12.00;;;7.40;;
75025;SDS011;63591;50.080;8.286;2022-11-06T09:31:01;14.40;;;8.27;;
75025;SDS011;63591;50.080;8.286;2022-11-06T09:33:26;13.37;;;8.00;;
75025;SDS011;63591;50.080;8.286;2022-11-06T09:35:51;11.60;;;7.50;;
75025;SDS011;63591;50.080;8.286;2022-11-06T09:38:17;12.75;;;8.05;;
75025;SDS011;63591;50.080;8.286;2022-11-06T09:40:47;13.20;;;7.87;;
75025;SDS011;63591;50.080;8.286;2022-11-06T09:45:58;13.10;;;8.10;;
75025;SDS011;63591;50.080;8.286;2022-11-06T09:48:31;13.05;;;8.13;;
75025;SDS011;63591;50.080;8.286;2022-11-06T09:54:10;14.37;;;8.07;;
75025;SDS011;63591;50.080;8.286;2022-11-06T09:56:40;12.68;;;7.82;;
75025;SDS011;63591;50.080;8.286;2022-11-06T09:59:11;13.60;;;8.30;;
75025;SDS011;63591;50.080;8.286;2022-11-06T10:01:41;15.02;;;8.45;;
75025;SDS011;63591;50.080;8.286;2022-11-06T10:04:14;12.30;;;8.13;;
75025;SDS011;63591;50.080;8.286;2022-11-06T10:07:07;15.67;;;7.77;;
75025;SDS011;63591;50.080;8.286;2022-11-06T10:09:45;12.70;;;8.10;;
75025;SDS011;63591;50.080;8.286;2022-11-06T10:12:19;11.57;;;8.07;;
75025;SDS011;63591;50.080;8.286;2022-11-06T10:15:03;13.15;;;7.88;;
75025;SDS011;63591;50.080;8.286;2022-11-06T10:20:39;11.82;;;7.78;;
75025;SDS011;63591;50.080;8.286;2022-11-06T10:25:45;13.77;;;8.15;;
75025;SDS011;63591;50.080;8.286;2022-11-06T10:28:26;14.20;;;8.50;;
75025;SDS011;63591;50.080;8.286;2022-11-06T10:31:14;12.70;;;7.50;;
75025;SDS011;63591;50.080;8.286;2022-11-06T10:33:53;10.77;;;6.80;;
75025;SDS011;63591;50.080;8.286;2022-11-06T10:39:33;10.95;;;6.55;;
75025;SDS011;63591;50.080;8.286;2022-11-06T10:42:01;12.45;;;6.70;;
75025;SDS011;63591;50.080;8.286;2022-11-06T10:44:49;11.95;;;6.47;;
75025;SDS011;63591;50.080;8.286;2022-11-06T10:47:28;9.95;;;6.30;;
75025;SDS011;63591;50.080;8.286;2022-11-06T10:49:58;11.10;;;6.45;;
75025;SDS011;63591;50.080;8.286;2022-11-06T10:58:03;9.38;;;5.85;;
75025;SDS011;63591;50.080;8.286;2022-11-06T11:00:31;9.13;;;5.65;;
75025;SDS011;63591;50.080;8.286;2022-11-06T11:02:59;9.27;;;5.40;;
75025;SDS011;63591;50.080;8.286;2022-11-06T11:05:31;9.55;;;5.35;;
75025;SDS011;63591;50.080;8.286;2022-11-06T11:08:02;7.60;;;4.75;;
75025;SDS011;63591;50.080;8.286;2022-11-06T11:10:29;7.37;;;4.27;;
75025;SDS011;63591;50.080;8.286;2022-11-06T11:13:00;8.02;;;4.40;;
75025;SDS011;63591;50.080;8.286;2022-11-06T11:15:30;8.93;;;4.38;;
75025;SDS011;63591;50.080;8.286;2022-11-06T11:20:32;9.38;;;4.18;;
75025;SDS011;63591;50.080;8.286;2022-11-06T11:23:08;8.90;;;4.23;;
75025;SDS011;63591;50.080;8.286;2022-11-06T11:25:36;9.23;;;4.50;;
75025;SDS011;63591;50.080;8.286;2022-11-06T11:28:02;8.93;;;4.40;;
75025;SDS011;63591;50.080;8.286;2022-11-06T11:30:28;7.90;;;4.18;;
75025;SDS011;63591;50.080;8.286;2022-11-06T11:32:54;7.90;;;3.92;;
75025;SDS011;63591;50.080;8.286;2022-11-06T11:35:28;8.50;;;4.18;;
75025;SDS011;63591;50.080;8.286;2022-11-06T11:38:03;9.00;;;4.00;;
75025;SDS011;63591;50.080;8.286;2022-11-06T11:40:35;6.90;;;3.70;;
75025;SDS011;63591;50.080;8.286;2022-11-06T11:43:14;7.63;;;3.63;;
75025;SDS011;63591;50.080;8.286;2022-11-06T11:51:11;7.22;;;3.53;;
75025;SDS011;63591;50.080;8.286;2022-11-06T11:53:39;6.65;;;3.35;;
75025;SDS011;63591;50.080;8.286;2022-11-06T11:56:05;8.60;;;3.83;;
75025;SDS011;63591;50.080;8.286;2022-11-06T11:58:31;7.20;;;3.70;;
75025;SDS011;63591;50.080;8.286;2022-11-06T12:00:58;6.45;;;3.80;;
75025;SDS011;63591;50.080;8.286;2022-11-06T12:03:28;6.72;;;3.47;;
75025;SDS011;63591;50.080;8.286;2022-11-06T12:06:05;5.90;;;3.38;;
75025;SDS011;63591;50.080;8.286;2022-11-06T12:08:35;6.90;;;3.35;;
75025;SDS011;63591;50.080;8.286;2022-11-06T12:11:04;6.45;;;3.53;;
75025;SDS011;63591;50.080;8.286;2022-11-06T12:13:30;6.85;;;3.60;;
75025;SDS011;63591;50.080;8.286;2022-11-06T12:16:03;5.77;;;3.30;;
75025;SDS011;63591;50.080;8.286;2022-11-06T12:23:54;6.55;;;3.60;;
75025;SDS011;63591;50.080;8.286;2022-11-06T12:26:25;7.55;;;3.65;;
75025;SDS011;63591;50.080;8.286;2022-11-06T12:28:53;7.20;;;4.00;;
75025;SDS011;63591;50.080;8.286;2022-11-06T12:31:27;6.93;;;3.80;;
75025;SDS011;63591;50.080;8.286;2022-11-06T12:34:00;6.60;;;3.63;;
75025;SDS011;63591;50.080;8.286;2022-11-06T12:36:31;9.25;;;3.80;;
75025;SDS011;63591;50.080;8.286;2022-11-06T12:39:05;6.82;;;3.60;;
75025;SDS011;63591;50.080;8.286;2022-11-06T12:41:39;6.63;;;3.22;;
75025;SDS011;63591;50.080;8.286;2022-11-06T12:44:10;6.30;;;3.33;;
75025;SDS011;63591;50.080;8.286;2022-11-06T12:49:53;7.05;;;3.28;;
75025;SDS011;63591;50.080;8.286;2022-11-06T12:52:47;4.97;;;3.13;;
75025;SDS011;63591;50.080;8.286;2022-11-06T13:03:24;5.32;;;3.15;;
75025;SDS011;63591;50.080;8.286;2022-11-06T13:06:10;6.78;;;3.35;;
75025;SDS011;63591;50.080;8.286;2022-11-06T13:22:18;7.28;;;3.50;;
75025;SDS011;63591;50.080;8.286;2022-11-06T13:25:06;5.97;;;3.08;;
75025;SDS011;63591;50.080;8.286;2022-11-06T13:30:21;7.03;;;3.57;;
75025;SDS011;63591;50.080;8.286;2022-11-06T13:35:35;6.63;;;3.60;;
75025;SDS011;63591;50.080;8.286;2022-11-06T13:38:07;7.32;;;3.50;;
75025;SDS011;63591;50.080;8.286;2022-11-06T13:40:39;6.65;;;3.50;;
75025;SDS011;63591;50.080;8.286;2022-11-06T13:48:51;7.10;;;3.10;;
75025;SDS011;63591;50.080;8.286;2022-11-06T13:59:36;8.00;;;3.17;;
75025;SDS011;63591;50.080;8.286;2022-11-06T14:07:20;5.50;;;2.85;;
75025;SDS011;63591;50.080;8.286;2022-11-06T14:09:50;6.43;;;3.00;;
75025;SDS011;63591;50.080;8.286;2022-11-06T14:12:16;5.32;;;2.78;;
75025;SDS011;63591;50.080;8.286;2022-11-06T14:14:45;5.77;;;2.90;;
75025;SDS011;63591;50.080;8.286;2022-11-06T14:17:18;5.88;;;3.03;;
75025;SDS011;63591;50.080;8.286;2022-11-06T14:32:55;6.20;;;3.05;;
75025;SDS011;63591;50.080;8.286;2022-11-06T14:40:33;5.93;;;3.00;;
75025;SDS011;63591;50.080;8.286;2022-11-06T14:42:59;6.07;;;3.10;;
75025;SDS011;63591;50.080;8.286;2022-11-06T14:45:25;5.32;;;2.70;;
75025;SDS011;63591;50.080;8.286;2022-11-06T14:47:51;4.90;;;3.00;;
75025;SDS011;63591;50.080;8.286;2022-11-06T14:52:47;5.97;;;3.53;;
75025;SDS011;63591;50.080;8.286;2022-11-06T15:00:53;5.85;;;3.40;;
75025;SDS011;63591;50.080;8.286;2022-11-06T15:03:32;7.32;;;3.50;;
75025;SDS011;63591;50.080;8.286;2022-11-06T15:06:45;6.82;;;3.17;;
75025;SDS011;63591;50.080;8.286;2022-11-06T15:08:51;8.02;;;3.88;;
75025;SDS011;63591;50.080;8.286;2022-11-06T15:13:52;8.00;;;3.38;;
75025;SDS011;63591;50.080;8.286;2022-11-06T15:16:18;6.37;;;3.40;;
75025;SDS011;63591;50.080;8.286;2022-11-06T15:18:46;5.68;;;3.22;;
75025;SDS011;63591;50.080;8.286;2022-11-06T15:21:16;6.30;;;3.37;;
75025;SDS011;63591;50.080;8.286;2022-11-06T15:23:56;6.13;;;3.15;;
75025;SDS011;63591;50.080;8.286;2022-11-06T15:26:31;6.50;;;3.55;;
75025;SDS011;63591;50.080;8.286;2022-11-06T15:29:03;7.32;;;3.40;;
75025;SDS011;63591;50.080;8.286;2022-11-06T15:31:37;7.72;;;3.20;;
75025;SDS011;63591;50.080;8.286;2022-11-06T15:34:05;7.45;;;3.50;;
75025;SDS011;63591;50.080;8.286;2022-11-06T15:36:38;5.85;;;2.92;;
75025;SDS011;63591;50.080;8.286;2022-11-06T15:42:09;5.35;;;3.15;;
75025;SDS011;63591;50.080;8.286;2022-11-06T15:44:40;6.50;;;3.40;;
75025;SDS011;63591;50.080;8.286;2022-11-06T15:47:18;5.50;;;3.30;;
75025;SDS011;63591;50.080;8.286;2022-11-06T15:49:45;6.68;;;3.80;;
75025;SDS011;63591;50.080;8.286;2022-11-06T15:52:15;6.57;;;4.10;;
75025;SDS011;63591;50.080;8.286;2022-11-06T15:54:42;7.78;;;3.60;;
75025;SDS011;63591;50.080;8.286;2022-11-06T15:57:13;6.45;;;3.90;;
75025;SDS011;63591;50.080;8.286;2022-11-06T15:59:45;6.47;;;3.70;;
75025;SDS011;63591;50.080;8.286;2022-11-06T16:02:12;8.23;;;3.87;;
75025;SDS011;63591;50.080;8.286;2022-11-06T16:04:40;6.68;;;3.70;;
75025;SDS011;63591;50.080;8.286;2022-11-06T16:07:06;6.60;;;3.70;;
75025;SDS011;63591;50.080;8.286;2022-11-06T16:09:33;6.25;;;3.85;;
75025;SDS011;63591;50.080;8.286;2022-11-06T16:11:59;6.60;;;3.88;;
75025;SDS011;63591;50.080;8.286;2022-11-06T16:14:24;7.47;;;4.10;;
75025;SDS011;63591;50.080;8.286;2022-11-06T16:16:50;9.35;;;4.65;;
75025;SDS011;63591;50.080;8.286;2022-11-06T16:21:50;7.43;;;3.92;;
75025;SDS011;63591;50.080;8.286;2022-11-06T16:24:21;7.63;;;4.30;;
75025;SDS011;63591;50.080;8.286;2022-11-06T16:26:49;7.80;;;4.07;;
75025;SDS011;63591;50.080;8.286;2022-11-06T16:29:16;7.47;;;4.22;;
75025;SDS011;63591;50.080;8.286;2022-11-06T16:31:45;6.70;;;3.90;;
75025;SDS011;63591;50.080;8.286;2022-11-06T16:37:02;7.93;;;4.82;;
75025;SDS011;63591;50.080;8.286;2022-11-06T16:39:41;10.75;;;5.40;;
75025;SDS011;63591;50.080;8.286;2022-11-06T16:45:15;8.13;;;4.90;;
75025;SDS011;63591;50.080;8.286;2022-11-06T16:50:43;9.30;;;4.90;;
75025;SDS011;63591;50.080;8.286;2022-11-06T16:53:20;8.60;;;4.88;;
75025;SDS011;63591;50.080;8.286;2022-11-06T16:55:52;7.75;;;4.60;;
75025;SDS011;63591;50.080;8.286;2022-11-06T16:58:19;8.40;;;4.60;;
75025;SDS011;63591;50.080;8.286;2022-11-06T17:00:47;7.65;;;4.38;;
75025;SDS011;63591;50.080;8.286;2022-11-06T17:03:22;6.53;;;3.92;;
75025;SDS011;63591;50.080;8.286;2022-11-06T17:05:53;7.05;;;4.30;;
75025;SDS011;63591;50.080;8.286;2022-11-06T17:10:52;6.80;;;4.03;;
75025;SDS011;63591;50.080;8.286;2022-11-06T17:13:22;7.47;;;4.60;;
75025;SDS011;63591;50.080;8.286;2022-11-06T17:15:54;7.20;;;4.20;;
75025;SDS011;63591;50.080;8.286;2022-11-06T17:18:22;6.95;;;4.00;;
75025;SDS011;63591;50.080;8.286;2022-11-06T17:20:53;7.95;;;3.85;;
75025;SDS011;63591;50.080;8.286;2022-11-06T17:23:21;6.93;;;4.00;;
75025;SDS011;63591;50.080;8.286;2022-11-06T17:25:48;7.65;;;3.92;;
75025;SDS011;63591;50.080;8.286;2022-11-06T17:28:15;6.93;;;3.97;;
75025;SDS011;63591;50.080;8.286;2022-11-06T17:30:42;7.38;;;4.00;;